Angora, Minnesota
Current Conditions -  °F | °C
As of 5:14 PM on Sunday 21 Dec 2014 (Local Time) from KCQM Reporting Station
Haze Haze  
Wind Chill: -5°   Ceiling: 500
Heat Index: -1°   Visibility: 4mi
Dew Point: -1°   Wind: 8mph
Humidity: 100%   Direction: 150°SSE
Pressure: 29.72"   Gusts: NA
Location:  47.77°N, 92.63°W
Report Text: KCQM 212314Z AUTO 15007KT 4SM BR OVC005 M01/M01 A2972 RMK AO2
Loading
Personal Weather Stations






























Interactive Weather Map New forecast layout! Learn more

10-Day Weather Forecast

Advertisements
Track Severe Weather on mobile